createdAt,value
2019-01-12T00:01:48.630Z,101166.20
2019-01-12T00:04:19.527Z,101155.66
2019-01-12T00:06:50.400Z,101166.09
2019-01-12T00:09:21.343Z,101162.90
2019-01-12T00:11:52.234Z,101154.46
2019-01-12T00:14:23.197Z,101169.00
2019-01-12T00:16:54.410Z,101163.09
2019-01-12T00:19:25.293Z,101151.89
2019-01-12T00:21:56.188Z,101153.96
2019-01-12T00:24:31.500Z,101153.16
2019-01-12T00:26:59.739Z,101152.90
2019-01-12T00:29:30.630Z,101154.18
2019-01-12T00:32:01.535Z,101154.50
2019-01-12T00:34:32.460Z,101158.36
2019-01-12T00:37:03.637Z,101151.05
2019-01-12T00:39:34.565Z,101136.01
2019-01-12T00:42:05.460Z,101135.59
2019-01-12T00:44:36.344Z,101135.33
2019-01-12T00:47:07.274Z,101142.50
2019-01-12T00:49:38.452Z,101140.67
2019-01-12T00:52:09.404Z,101143.31
2019-01-12T00:54:40.310Z,101144.53
2019-01-12T00:57:11.278Z,101147.48
2019-01-12T00:59:42.471Z,101141.32
2019-01-12T01:02:13.651Z,101142.78
2019-01-12T01:04:47.358Z,101136.09
2019-01-12T01:07:19.282Z,101137.09
2019-01-12T01:09:50.165Z,101136.72
2019-01-12T01:12:21.759Z,101139.88
2019-01-12T01:14:52.682Z,101139.88
2019-01-12T01:17:23.603Z,101143.36
2019-01-12T01:19:54.508Z,101144.42
2019-01-12T01:22:25.758Z,101147.11
2019-01-12T01:24:56.677Z,101144.95
2019-01-12T01:27:27.970Z,101141.77
2019-01-12T01:29:58.916Z,101146.43
2019-01-12T01:32:29.929Z,101142.64
2019-01-12T01:35:00.887Z,101157.14
2019-01-12T01:37:32.121Z,101152.53
2019-01-12T01:40:02.994Z,101150.09
2019-01-12T01:42:33.939Z,101160.55
2019-01-12T01:45:05.998Z,101161.87
2019-01-12T01:47:36.887Z,101146.39
2019-01-12T01:50:08.792Z,101160.09
2019-01-12T01:52:39.669Z,101158.73
2019-01-12T01:55:11.242Z,101153.27
2019-01-12T01:57:42.133Z,101158.67
2019-01-12T02:00:16.948Z,101156.89
2019-01-12T02:02:47.849Z,101156.17
2019-01-12T02:05:18.763Z,101155.99
2019-01-12T02:07:49.692Z,101148.89
2019-01-12T02:10:23.212Z,101149.58
2019-01-12T02:12:54.440Z,101158.77
2019-01-12T02:15:25.352Z,101160.16
2019-01-12T02:17:56.249Z,101157.37
2019-01-12T02:20:27.148Z,101160.02
2019-01-12T02:22:58.052Z,101149.34
2019-01-12T02:25:29.291Z,101145.78
2019-01-12T02:30:42.930Z,101143.88
2019-01-12T02:33:13.888Z,101155.09
2019-01-12T02:35:44.777Z,101143.62
2019-01-12T02:38:15.688Z,101147.94
2019-01-12T02:40:46.661Z,101140.22
2019-01-12T02:43:17.699Z,101148.85
2019-01-12T02:45:48.608Z,101141.27
2019-01-12T02:48:19.487Z,101136.66
2019-01-12T02:50:50.972Z,101142.25
2019-01-12T02:53:21.844Z,101140.41
2019-01-12T02:55:52.794Z,101141.66
2019-01-12T02:58:24.036Z,101143.05
2019-01-12T03:00:54.905Z,101140.48
2019-01-12T03:03:25.880Z,101136.20
2019-01-12T03:05:56.759Z,101133.06
2019-01-12T03:08:27.672Z,101135.36
2019-01-12T03:10:58.555Z,101122.73
2019-01-12T03:13:29.426Z,101122.73
2019-01-12T03:16:00.355Z,101126.41
2019-01-12T03:18:31.237Z,101115.08
2019-01-12T03:21:02.237Z,101117.69
2019-01-12T03:23:33.098Z,101119.73
2019-01-12T03:26:03.993Z,101111.83
2019-01-12T03:28:34.952Z,101110.42
2019-01-12T03:31:05.830Z,101111.33
2019-01-12T03:33:37.098Z,101113.03
2019-01-12T03:36:07.980Z,101107.13
2019-01-12T03:38:38.920Z,101115.19
2019-01-12T03:41:09.831Z,101103.16
2019-01-12T03:43:40.685Z,101103.27
2019-01-12T03:46:11.887Z,101093.20
2019-01-12T03:48:42.839Z,101105.66
2019-01-12T03:51:13.694Z,101101.41
2019-01-12T03:53:44.596Z,101106.22
2019-01-12T03:56:15.462Z,101098.91
2019-01-12T03:58:46.391Z,101091.75
2019-01-12T04:01:17.257Z,101093.12
2019-01-12T04:03:48.129Z,101093.12
2019-01-12T04:06:19.253Z,101088.80
2019-01-12T04:08:50.133Z,101086.69
2019-01-12T04:11:21.010Z,101087.78
2019-01-12T04:13:51.930Z,101084.19
2019-01-12T04:16:22.828Z,101088.39
2019-01-12T04:18:53.689Z,101082.83
2019-01-12T04:21:24.637Z,101084.38
2019-01-12T04:23:55.573Z,101085.17
2019-01-12T04:26:26.493Z,101086.77
2019-01-12T04:28:57.424Z,101082.48
2019-01-12T04:31:28.363Z,101079.65
2019-01-12T04:33:59.232Z,101079.04
2019-01-12T04:36:30.499Z,101076.05
2019-01-12T04:39:01.367Z,101072.53
2019-01-12T04:41:32.231Z,101068.74
2019-01-12T04:44:03.458Z,101064.88
2019-01-12T04:46:34.326Z,101065.30
2019-01-12T04:49:05.199Z,101068.82
2019-01-12T04:51:36.102Z,101057.61
2019-01-12T04:54:07.477Z,101052.02
2019-01-12T04:56:38.418Z,101054.17
2019-01-12T04:59:09.621Z,101054.92
2019-01-12T05:01:40.478Z,101048.91
2019-01-12T05:04:11.345Z,101054.47
2019-01-12T05:06:42.310Z,101054.52
2019-01-12T05:09:13.165Z,101054.35
2019-01-12T05:11:44.035Z,101048.83
2019-01-12T05:14:14.969Z,101045.30
2019-01-12T05:16:45.919Z,101048.08
2019-01-12T05:19:16.869Z,101049.89
2019-01-12T05:21:47.771Z,101044.41
2019-01-12T05:24:18.637Z,101046.41
2019-01-12T05:26:49.516Z,101044.09
2019-01-12T05:29:20.441Z,101053.22
2019-01-12T05:31:51.386Z,101050.11
2019-01-12T05:34:22.589Z,101051.73
2019-01-12T05:36:53.749Z,101052.65
2019-01-12T05:39:24.623Z,101040.16
2019-01-12T05:41:55.552Z,101043.30
2019-01-12T05:44:26.413Z,101038.56
2019-01-12T05:46:57.322Z,101036.49
2019-01-12T05:49:28.207Z,101042.70
2019-01-12T05:51:59.071Z,101045.16
2019-01-12T05:54:29.962Z,101040.80
2019-01-12T05:57:00.835Z,101040.09
2019-01-12T05:59:31.752Z,101041.22
2019-01-12T06:02:02.636Z,101041.14
2019-01-12T06:04:33.506Z,101037.02
2019-01-12T06:07:04.700Z,101041.59
2019-01-12T06:09:35.568Z,101040.73
2019-01-12T06:12:06.767Z,101042.88
2019-01-12T06:14:37.631Z,101042.20
2019-01-12T06:17:08.817Z,101043.61
2019-01-12T06:19:39.711Z,101040.97
2019-01-12T06:22:10.564Z,101039.81
2019-01-12T06:24:41.481Z,101038.64
2019-01-12T06:27:12.360Z,101043.64
2019-01-12T06:29:43.219Z,101041.75
2019-01-12T06:32:14.113Z,101042.59
2019-01-12T06:34:44.978Z,101043.95
2019-01-12T06:37:16.187Z,101041.45
2019-01-12T06:39:47.059Z,101047.93
2019-01-12T06:42:17.932Z,101048.30
2019-01-12T06:44:48.836Z,101043.87
2019-01-12T06:47:19.703Z,101043.16
2019-01-12T06:49:50.638Z,101040.28
2019-01-12T06:52:21.509Z,101036.94
2019-01-12T06:54:52.477Z,101043.37
2019-01-12T06:57:23.671Z,101036.92
2019-01-12T06:59:54.553Z,101034.80
2019-01-12T07:02:25.455Z,101034.08
2019-01-12T07:04:56.328Z,101039.61
2019-01-12T07:07:27.486Z,101033.17
2019-01-12T07:09:58.388Z,101032.84
2019-01-12T07:12:29.355Z,101022.88
2019-01-12T07:15:00.362Z,101029.87
2019-01-12T07:17:31.577Z,101028.97
2019-01-12T07:20:02.735Z,101031.43
2019-01-12T07:22:33.651Z,101024.88
2019-01-12T07:25:04.921Z,101028.66
2019-01-12T07:27:35.849Z,101030.83
2019-01-12T07:30:15.556Z,101026.13
2019-01-12T07:32:46.772Z,101026.96
2019-01-12T07:35:17.647Z,101024.05
2019-01-12T07:37:48.634Z,101027.12
2019-01-12T07:40:19.528Z,101023.59
2019-01-12T07:42:50.402Z,101020.23
2019-01-12T07:45:21.419Z,101015.83
2019-01-12T07:47:52.327Z,101011.59
2019-01-12T07:50:23.206Z,101015.05
2019-01-12T07:52:54.390Z,101011.48
2019-01-12T07:55:25.256Z,101012.88
2019-01-12T07:57:56.185Z,101017.35
2019-01-12T08:00:27.124Z,101011.18
2019-01-12T08:02:57.993Z,101004.09
2019-01-12T08:05:28.894Z,101007.73
2019-01-12T08:08:00.039Z,101001.72
2019-01-12T08:10:30.961Z,100991.19
2019-01-12T08:13:01.828Z,101000.20
2019-01-12T08:15:33.014Z,101002.17
2019-01-12T08:18:03.914Z,100997.91
2019-01-12T08:20:34.792Z,100985.83
2019-01-12T08:23:06.007Z,100986.91
2019-01-12T08:25:36.879Z,100988.11
2019-01-12T08:28:08.047Z,100987.20
2019-01-12T08:30:38.938Z,100979.52
2019-01-12T08:33:09.828Z,100972.22
2019-01-12T08:35:40.760Z,100966.98
2019-01-12T08:38:11.619Z,100969.27
2019-01-12T08:40:42.532Z,100963.13
2019-01-12T08:43:13.448Z,100970.59
2019-01-12T08:45:44.779Z,100959.02
2019-01-12T08:48:15.685Z,100961.09
2019-01-12T08:50:46.583Z,100957.64
2019-01-12T08:53:17.515Z,100956.56
2019-01-12T08:55:48.419Z,100953.32
2019-01-12T08:58:19.269Z,100949.83
2019-01-12T09:00:50.199Z,100947.05
2019-01-12T09:03:21.071Z,100946.59
2019-01-12T09:05:51.949Z,100944.34
2019-01-12T09:08:22.847Z,100946.27
2019-01-12T09:10:53.717Z,100936.20
2019-01-12T09:13:24.739Z,100940.20
2019-01-12T09:15:55.633Z,100932.89
2019-01-12T09:18:26.523Z,100932.72
2019-01-12T09:20:57.492Z,100932.84
2019-01-12T09:23:28.364Z,100923.88
2019-01-12T09:25:59.282Z,100924.61
2019-01-12T09:28:30.169Z,100922.41
2019-01-12T09:31:01.059Z,100920.75
2019-01-12T09:33:32.339Z,100909.22
2019-01-12T09:36:03.210Z,100902.77
2019-01-12T09:38:34.128Z,100903.09
2019-01-12T09:41:05.214Z,100915.70
2019-01-12T09:43:36.472Z,100913.25
2019-01-12T09:46:07.602Z,100909.91
2019-01-12T09:48:38.480Z,100913.69
2019-01-12T09:51:09.384Z,100906.88
2019-01-12T09:53:40.262Z,100896.02
2019-01-12T09:56:11.421Z,100888.39
2019-01-12T09:58:42.336Z,100880.14
2019-01-12T10:01:13.355Z,100872.80
2019-01-12T10:03:44.266Z,100871.64
2019-01-12T10:06:15.431Z,100860.34
2019-01-12T10:08:46.306Z,100848.62
2019-01-12T10:11:17.221Z,100837.19
2019-01-12T10:13:48.094Z,100829.78
2019-01-12T10:16:18.995Z,100829.23
2019-01-12T10:18:50.017Z,100825.72
2019-01-12T10:21:20.880Z,100815.47
2019-01-12T10:23:52.096Z,100814.45
2019-01-12T10:26:22.986Z,100810.22
2019-01-12T10:28:53.872Z,100804.98
2019-01-12T10:31:24.793Z,100797.95
2019-01-12T10:33:55.752Z,100794.09
2019-01-12T10:36:26.962Z,100784.58
2019-01-12T10:38:57.835Z,100782.09
2019-01-12T10:41:28.722Z,100781.12
2019-01-12T10:43:59.900Z,100771.84
2019-01-12T10:46:30.776Z,100771.79
2019-01-12T10:49:01.794Z,100756.25
2019-01-12T10:51:32.667Z,100751.65
2019-01-12T10:54:03.554Z,100745.93
2019-01-12T10:56:34.456Z,100732.45
2019-01-12T10:59:05.444Z,100734.05
2019-01-12T11:01:36.358Z,100731.42
2019-01-12T11:04:07.446Z,100736.58
2019-01-12T11:06:38.310Z,100731.61
2019-01-12T11:09:10.375Z,100723.27
2019-01-12T11:11:41.543Z,100714.30
2019-01-12T11:14:12.468Z,100700.81
2019-01-12T11:16:43.370Z,100701.02
2019-01-12T11:19:14.247Z,100693.48
2019-01-12T11:21:45.135Z,100690.82
2019-01-12T11:24:16.303Z,100676.71
2019-01-12T11:26:47.299Z,100680.16
2019-01-12T11:29:18.323Z,100658.23
2019-01-12T11:31:49.197Z,100655.30
2019-01-12T11:34:20.098Z,100652.26
2019-01-12T11:36:50.989Z,100632.09
2019-01-12T11:39:21.988Z,100631.00
2019-01-12T11:41:53.167Z,100627.25
2019-01-12T11:44:24.048Z,100620.70
2019-01-12T11:46:55.009Z,100619.38
2019-01-12T11:49:25.884Z,100618.91
2019-01-12T11:51:56.809Z,100604.02
2019-01-12T11:54:27.693Z,100604.64
2019-01-12T11:56:58.574Z,100601.61
2019-01-12T11:59:29.471Z,100596.47
2019-01-12T12:02:00.349Z,100593.94
2019-01-12T12:04:31.264Z,100583.55
2019-01-12T12:07:02.206Z,100578.41
2019-01-12T12:09:33.076Z,100570.16
2019-01-12T12:12:03.972Z,100549.20
2019-01-12T12:14:34.851Z,100548.63
2019-01-12T12:17:05.885Z,100552.03
2019-01-12T12:19:36.760Z,100528.41
2019-01-12T12:22:07.644Z,100527.00
2019-01-12T12:24:38.556Z,100520.99
2019-01-12T12:27:09.432Z,100511.08
2019-01-12T12:29:40.342Z,100499.73
2019-01-12T12:32:11.210Z,100494.47
2019-01-12T12:34:42.092Z,100486.99
2019-01-12T12:37:12.997Z,100481.25
2019-01-12T12:39:43.876Z,100468.48
2019-01-12T12:42:14.788Z,100464.27
2019-01-12T12:44:45.661Z,100455.31
2019-01-12T12:47:16.527Z,100457.84
2019-01-12T12:49:47.449Z,100449.36
2019-01-12T12:52:18.322Z,100437.70
2019-01-12T12:54:49.198Z,100430.92
2019-01-12T12:57:20.123Z,100427.48
2019-01-12T12:59:51.019Z,100419.31
2019-01-12T13:02:22.186Z,100413.22
2019-01-12T13:04:53.142Z,100410.41
2019-01-12T13:07:24.028Z,100407.94
2019-01-12T13:09:55.147Z,100394.61
2019-01-12T13:13:10.427Z,100400.70
2019-01-12T13:15:42.513Z,100396.02
2019-01-12T13:18:13.454Z,100375.02
2019-01-12T13:20:44.441Z,100382.61
2019-01-12T13:23:15.328Z,100365.54
2019-01-12T13:25:46.216Z,100368.03
2019-01-12T13:28:22.633Z,100363.66
2019-01-12T13:30:53.594Z,100360.68
2019-01-12T13:33:24.533Z,100365.50
2019-01-12T13:35:55.453Z,100357.95
2019-01-12T13:38:26.318Z,100345.76
2019-01-12T13:40:57.198Z,100344.06
2019-01-12T13:43:28.422Z,100338.58
2019-01-12T13:45:59.308Z,100333.48
2019-01-12T13:48:30.570Z,100332.54
2019-01-12T13:51:01.483Z,100327.91
2019-01-12T13:53:32.743Z,100319.80
2019-01-12T13:56:03.609Z,100314.06
2019-01-12T13:58:34.840Z,100319.41
2019-01-12T14:01:06.666Z,100319.00
2019-01-12T14:03:37.531Z,100311.77
2019-01-12T14:06:08.424Z,100309.47
2019-01-12T14:08:39.303Z,100309.53
2019-01-12T14:11:10.538Z,100307.76
2019-01-12T14:13:42.431Z,100303.98
2019-01-12T14:16:13.785Z,100303.31
2019-01-12T14:18:44.781Z,100298.89
2019-01-12T14:21:17.809Z,100294.97
2019-01-12T14:23:48.790Z,100289.00
2019-01-12T14:26:19.672Z,100277.20
2019-01-12T14:28:50.619Z,100285.75
2019-01-12T14:31:21.612Z,100279.38
2019-01-12T14:33:52.483Z,100276.19
2019-01-12T14:36:23.441Z,100269.78
2019-01-12T14:38:54.372Z,100264.69
2019-01-12T14:41:25.241Z,100262.39
2019-01-12T14:43:56.137Z,100266.38
2019-01-12T14:46:27.037Z,100255.67
2019-01-12T14:49:07.223Z,100255.06
2019-01-12T14:51:38.121Z,100256.29
2019-01-12T14:54:08.982Z,100249.79
2019-01-12T14:56:39.890Z,100250.03
2019-01-12T14:59:10.768Z,100243.20
2019-01-12T15:01:41.998Z,100239.85
2019-01-12T15:04:12.960Z,100239.00
2019-01-12T15:06:44.186Z,100226.94
2019-01-12T15:09:15.123Z,100230.87
2019-01-12T15:11:46.032Z,100238.38
2019-01-12T15:14:17.303Z,100234.27
2019-01-12T15:16:48.515Z,100228.84
2019-01-12T15:19:19.395Z,100228.66
2019-01-12T15:21:50.384Z,100226.66
2019-01-12T15:24:21.866Z,100221.05
2019-01-12T15:26:53.080Z,100213.64
2019-01-12T15:29:23.947Z,100215.28
2019-01-12T15:31:54.821Z,100213.78
2019-01-12T15:34:25.744Z,100216.48
2019-01-12T15:36:56.931Z,100207.28
2019-01-12T15:39:27.870Z,100218.79
2019-01-12T15:41:58.744Z,100217.50
2019-01-12T15:44:29.637Z,100218.60
2019-01-12T15:47:00.573Z,100216.79
2019-01-12T15:49:31.507Z,100214.45
2019-01-12T15:52:02.490Z,100215.47
2019-01-12T15:54:33.380Z,100214.28
2019-01-12T15:57:04.340Z,100206.00
2019-01-12T15:59:35.586Z,100206.80
2019-01-12T16:02:06.480Z,100200.51
2019-01-12T16:04:37.416Z,100195.36
2019-01-12T16:07:08.304Z,100197.94
2019-01-12T16:09:39.263Z,100203.63
2019-01-12T16:12:10.210Z,100201.88
2019-01-12T16:14:41.145Z,100191.28
2019-01-12T16:17:12.136Z,100205.18
2019-01-12T16:19:43.318Z,100190.80
2019-01-12T16:22:14.179Z,100198.19
2019-01-12T16:24:45.079Z,100192.67
2019-01-12T16:27:15.963Z,100207.11
2019-01-12T16:29:46.891Z,100198.80
2019-01-12T16:32:17.770Z,100193.65
2019-01-12T16:34:48.645Z,100196.44
2019-01-12T16:37:19.558Z,100192.21
2019-01-12T16:39:50.428Z,100191.69
2019-01-12T16:42:21.420Z,100185.31
2019-01-12T16:44:52.662Z,100187.97
2019-01-12T16:47:23.943Z,100182.45
2019-01-12T16:49:55.134Z,100172.04
2019-01-12T16:52:26.015Z,100159.03
2019-01-12T16:54:56.945Z,100161.86
2019-01-12T16:57:27.921Z,100158.55
2019-01-12T16:59:58.829Z,100155.92
2019-01-12T17:02:29.733Z,100163.19
2019-01-12T17:05:02.193Z,100168.58
2019-01-12T17:07:33.325Z,100163.42
2019-01-12T17:10:04.957Z,100163.81
2019-01-12T17:12:35.844Z,100174.85
2019-01-12T17:15:08.247Z,100174.21
2019-01-12T17:17:39.181Z,100170.05
2019-01-12T17:20:19.245Z,100169.62
2019-01-12T17:22:51.628Z,100180.99
2019-01-12T17:25:23.002Z,100183.47
2019-01-12T17:27:54.190Z,100185.03
2019-01-12T17:30:25.786Z,100184.64
2019-01-12T17:32:56.805Z,100174.31
2019-01-12T17:35:29.448Z,100182.80
2019-01-12T17:38:00.860Z,100173.05
2019-01-12T17:40:31.793Z,100179.09
2019-01-12T17:43:02.696Z,100169.53
2019-01-12T17:45:33.993Z,100169.41
2019-01-12T17:48:05.046Z,100171.36
2019-01-12T17:50:35.975Z,100157.54
2019-01-12T17:53:06.951Z,100156.31
2019-01-12T17:55:38.473Z,100160.23
2019-01-12T17:58:09.449Z,100147.98
2019-01-12T18:00:44.303Z,100151.23
2019-01-12T18:03:15.267Z,100151.60
2019-01-12T18:05:46.161Z,100151.72
2019-01-12T18:08:17.101Z,100153.44
2019-01-12T18:10:48.263Z,100152.27
2019-01-12T18:13:19.157Z,100152.80
2019-01-12T18:15:51.212Z,100151.88
2019-01-12T18:18:22.419Z,100155.64
2019-01-12T18:20:53.371Z,100153.13
2019-01-12T18:23:24.296Z,100147.00
2019-01-12T18:25:55.573Z,100134.11
2019-01-12T18:28:26.804Z,100143.14
2019-01-12T18:30:57.769Z,100152.24
2019-01-12T18:33:28.681Z,100145.44
2019-01-12T18:35:59.641Z,100140.30
2019-01-12T18:38:30.622Z,100140.88
2019-01-12T18:41:01.508Z,100140.91
2019-01-12T18:43:32.479Z,100136.89
2019-01-12T18:46:03.713Z,100137.50
2019-01-12T18:48:34.579Z,100139.95
2019-01-12T18:51:05.521Z,100139.95
2019-01-12T18:53:36.771Z,100131.53
2019-01-12T18:56:07.957Z,100135.50
2019-01-12T18:58:38.920Z,100130.09
2019-01-12T19:01:10.119Z,100128.34
2019-01-12T19:03:41.007Z,100133.52
2019-01-12T19:06:12.045Z,100128.43
2019-01-12T19:08:42.983Z,100118.64
2019-01-12T19:11:15.262Z,100122.44
2019-01-12T19:13:46.183Z,100117.55
2019-01-12T19:16:17.108Z,100123.30
2019-01-12T19:18:49.822Z,100114.08
2019-01-12T19:21:21.505Z,100121.22
2019-01-12T19:23:52.432Z,100120.72
2019-01-12T19:26:23.671Z,100117.95
2019-01-12T19:28:54.619Z,100117.63
2019-01-12T19:31:25.583Z,100117.06
2019-01-12T19:33:56.570Z,100115.78
2019-01-12T19:36:29.258Z,100112.52
2019-01-12T19:39:00.151Z,100106.31
2019-01-12T19:41:31.054Z,100110.50
2019-01-12T19:44:02.002Z,100107.33
2019-01-12T19:46:33.190Z,100108.78
2019-01-12T19:49:04.399Z,100110.36
2019-01-12T19:51:36.345Z,100104.69
2019-01-12T19:54:07.542Z,100108.55
2019-01-12T19:56:39.583Z,100109.00
2019-01-12T19:59:13.823Z,100101.77
2019-01-12T20:01:43.145Z,100101.46
2019-01-12T20:04:14.035Z,100101.31
2019-01-12T20:06:44.910Z,100100.19
2019-01-12T20:09:15.901Z,100095.77
2019-01-12T20:11:46.895Z,100104.38
2019-01-12T20:14:18.174Z,100101.80
2019-01-12T20:16:54.300Z,100102.00
2019-01-12T20:19:25.340Z,100102.21
2019-01-12T20:21:57.336Z,100092.59
2019-01-12T20:24:28.805Z,100086.55
2019-01-12T20:26:59.742Z,100091.23
2019-01-12T20:29:31.235Z,100096.10
2019-01-12T20:33:23.121Z,100096.05
2019-01-12T20:36:54.581Z,100095.56
2019-01-12T20:40:43.252Z,100086.95
2019-01-12T20:44:23.198Z,100088.91
2019-01-12T20:47:40.856Z,100094.33
2019-01-12T20:50:45.510Z,100096.66
2019-01-12T20:54:04.194Z,100086.22
2019-01-12T20:57:23.071Z,100090.50
2019-01-12T21:01:14.638Z,100082.50
2019-01-12T21:04:48.380Z,100080.18
2019-01-12T21:08:10.011Z,100077.20
2019-01-12T21:11:04.268Z,100072.45
2019-01-12T21:14:27.110Z,100072.20
2019-01-12T21:17:09.013Z,100066.56
2019-01-12T21:19:40.139Z,100077.75
2019-01-12T21:22:11.050Z,100074.09
2019-01-12T21:24:43.345Z,100067.45
2019-01-12T21:27:14.720Z,100066.72
2019-01-12T21:29:45.597Z,100056.68
2019-01-12T21:32:16.811Z,100063.20
2019-01-12T21:34:48.900Z,100063.26
2019-01-12T21:37:19.913Z,100065.01
2019-01-12T21:39:51.123Z,100059.59
2019-01-12T21:42:22.022Z,100056.09
2019-01-12T21:44:53.202Z,100057.16
2019-01-12T21:47:24.121Z,100052.77
2019-01-12T21:49:55.304Z,100049.58
2019-01-12T21:52:26.213Z,100050.86
2019-01-12T21:54:58.062Z,100054.98
2019-01-12T21:57:30.112Z,100049.52
2019-01-12T22:00:01.011Z,100042.12
2019-01-12T22:02:32.263Z,100046.80
2019-01-12T22:05:03.532Z,100045.16
2019-01-12T22:07:36.111Z,100041.86
2019-01-12T22:10:09.760Z,100039.61
2019-01-12T22:12:40.710Z,100039.61
2019-01-12T22:15:12.931Z,100043.97
2019-01-12T22:17:43.817Z,100046.81
2019-01-12T22:20:16.734Z,100041.72
2019-01-12T22:22:47.842Z,100032.91
2019-01-12T22:25:19.145Z,100034.92
2019-01-12T22:27:50.048Z,100044.42
2019-01-12T22:30:21.494Z,100038.52
2019-01-12T22:32:52.438Z,100031.42
2019-01-12T22:35:23.346Z,100034.06
2019-01-12T22:37:54.575Z,100038.33
2019-01-12T22:40:25.472Z,100037.80
2019-01-12T22:42:56.384Z,100034.39
2019-01-12T22:45:27.322Z,100026.28
2019-01-12T22:47:58.337Z,100025.05
2019-01-12T22:50:29.286Z,100024.86
2019-01-12T22:53:00.211Z,100026.61
2019-01-12T22:55:31.443Z,100016.80
2019-01-12T22:58:02.332Z,100017.59
2019-01-12T23:00:58.752Z,100014.06
2019-01-12T23:03:29.680Z,100009.73
2019-01-12T23:06:00.919Z,100023.27
2019-01-12T23:08:31.811Z,100013.73
2019-01-12T23:11:02.710Z,100025.35
2019-01-12T23:13:33.649Z,100015.22
2019-01-12T23:16:04.774Z,100012.71
2019-01-12T23:18:35.699Z,100014.26
2019-01-12T23:21:06.824Z,100020.47
2019-01-12T23:23:38.029Z,100016.50
2019-01-12T23:26:09.024Z,100013.34
2019-01-12T23:28:39.914Z,100011.29
2019-01-12T23:31:10.944Z,100012.38
2019-01-12T23:33:41.909Z,100009.67
2019-01-12T23:36:13.187Z,100013.99
2019-01-12T23:38:44.402Z,100010.06
2019-01-12T23:41:15.280Z,100007.48
2019-01-12T23:43:46.165Z,100011.88
2019-01-12T23:46:17.174Z,99998.94
2019-01-12T23:48:48.074Z,100002.34
2019-01-12T23:51:18.964Z,100005.25
2019-01-12T23:53:49.886Z,100002.91
2019-01-12T23:56:20.753Z,100004.45
2019-01-12T23:58:51.630Z,100007.59
